Time;durP1;ratioP1;P1;durP2;ratioP2;P2;SDS_P1;SDS_P2;PMS_P1;PMS_P2;Temp;Humidity;BMP_temperature;BMP_pressure;BME280_temperature;BME280_humidity;BME280_pressure;Samples;Min_cycle;Max_cycle;Signal;HPM_P1;HPM_P2
2021/12/08 00:00:32;;;;;;;17.67;11.78;;;;;;;0.85;74.10;98865.98;1772180;81;21177;-40
2021/12/08 00:02:55;;;;;;;17.23;11.20;;;;;;;0.84;74.33;98856.39;1771605;81;21069;-40
2021/12/08 00:05:22;;;;;;;16.45;11.60;;;;;;;0.87;74.14;98856.56;1772656;81;21336;-40
2021/12/08 00:07:49;;;;;;;19.80;12.53;;;;;;;0.88;74.15;98858.14;1772285;81;21017;-40
2021/12/08 00:13:04;;;;;;;17.10;11.73;;;;;;;0.81;74.26;98853.02;1772549;81;21170;-40
2021/12/08 00:15:42;;;;;;;16.57;11.90;;;;;;;0.76;74.23;98857.95;1772408;79;21095;-39
2021/12/08 00:18:12;;;;;;;17.32;12.88;;;;;;;0.78;74.21;98857.08;1772257;79;21548;-40
2021/12/08 00:20:41;;;;;;;20.85;14.15;;;;;;;0.73;74.52;98865.20;1772355;80;20930;-40
2021/12/08 00:23:08;;;;;;;18.60;12.23;;;;;;;0.74;74.76;98868.67;1772491;81;21056;-40
2021/12/08 00:25:36;;;;;;;18.30;12.47;;;;;;;0.77;74.66;98878.20;1772300;80;21099;-40
2021/12/08 00:28:04;;;;;;;17.98;12.75;;;;;;;0.82;74.44;98878.61;1772470;80;21779;-40
2021/12/08 00:30:31;;;;;;;18.17;12.78;;;;;;;0.82;74.38;98879.95;1772403;79;21029;-40
2021/12/08 00:32:58;;;;;;;19.60;12.15;;;;;;;0.80;74.35;98871.45;1772579;81;21005;-40
2021/12/08 00:35:27;;;;;;;16.37;11.97;;;;;;;0.79;74.36;98872.54;1772493;79;21507;-40
2021/12/08 00:37:56;;;;;;;17.23;11.80;;;;;;;0.82;74.32;98873.28;1772231;79;21835;-40
2021/12/08 00:40:23;;;;;;;18.65;12.30;;;;;;;0.90;74.24;98874.40;1771947;79;21343;-39
2021/12/08 00:42:50;;;;;;;17.30;12.03;;;;;;;0.88;74.12;98859.48;1772331;81;21016;-39
2021/12/08 00:45:18;;;;;;;20.72;12.82;;;;;;;0.85;74.05;98857.44;1772442;81;20961;-39
2021/12/08 00:47:45;;;;;;;18.65;12.68;;;;;;;0.82;74.18;98846.02;1772435;81;21084;-40
2021/12/08 00:50:13;;;;;;;17.70;12.53;;;;;;;0.86;74.00;98840.88;1772455;81;21134;-39
2021/12/08 00:52:41;;;;;;;18.50;12.33;;;;;;;0.82;73.94;98843.92;1772783;80;21017;-40
2021/12/08 00:55:10;;;;;;;17.45;12.23;;;;;;;0.74;74.06;98848.66;1772425;81;20982;-40
2021/12/08 00:57:37;;;;;;;16.23;11.15;;;;;;;0.69;74.26;98852.80;1772627;81;21022;-39
2021/12/08 01:00:14;;;;;;;16.93;11.57;;;;;;;0.71;74.30;98849.28;1772816;79;21006;-39
2021/12/08 01:02:41;;;;;;;16.80;12.50;;;;;;;0.79;74.16;98855.20;1772543;81;21157;-40
2021/12/08 01:05:11;;;;;;;17.50;12.88;;;;;;;0.75;74.08;98859.03;1772597;79;20962;-40
2021/12/08 01:07:38;;;;;;;18.05;11.93;;;;;;;0.73;74.13;98863.08;1772220;80;20917;-39
2021/12/08 01:10:08;;;;;;;16.48;11.22;;;;;;;0.70;74.15;98863.16;1772470;81;21519;-39
2021/12/08 01:12:36;;;;;;;16.60;11.50;;;;;;;0.74;74.03;98859.33;1772295;79;20957;-40
2021/12/08 01:15:04;;;;;;;16.87;12.63;;;;;;;0.79;73.93;98860.53;1772507;81;22048;-40
2021/12/08 01:17:32;;;;;;;16.60;11.93;;;;;;;0.76;73.80;98856.61;1772255;79;21014;-40
2021/12/08 01:19:59;;;;;;;16.82;11.57;;;;;;;0.72;73.80;98867.66;1772787;81;20914;-40
2021/12/08 01:22:25;;;;;;;16.57;11.73;;;;;;;0.67;73.93;98865.13;1772370;81;21057;-40
2021/12/08 01:24:52;;;;;;;18.85;12.18;;;;;;;0.67;73.84;98857.66;1772635;81;20993;-40
2021/12/08 01:27:18;;;;;;;21.12;12.37;;;;;;;0.64;74.03;98855.05;1772472;81;21035;-40
2021/12/08 01:29:48;;;;;;;17.10;11.68;;;;;;;0.64;74.18;98851.05;1772715;81;20942;-40
2021/12/08 01:32:13;;;;;;;17.30;11.68;;;;;;;0.62;74.18;98847.91;1772395;79;21076;-39
2021/12/08 01:34:40;;;;;;;16.30;11.80;;;;;;;0.64;74.11;98842.25;1772434;81;21518;-40
2021/12/08 01:37:08;;;;;;;20.30;12.63;;;;;;;0.60;74.09;98840.75;1774161;79;21171;-40
2021/12/08 01:39:34;;;;;;;16.65;11.38;;;;;;;0.57;74.34;98844.05;1786429;79;21123;-40
2021/12/08 01:42:01;;;;;;;15.78;11.05;;;;;;;0.58;74.33;98844.83;1786480;79;21040;-40
2021/12/08 01:47:13;;;;;;;18.73;12.30;;;;;;;0.64;74.30;98843.05;1769756;80;21703;-40
2021/12/08 01:49:40;;;;;;;16.37;11.88;;;;;;;0.23;74.22;98779.31;1786464;80;20941;-39
2021/12/08 01:52:06;;;;;;;17.77;11.53;;;;;;;0.61;74.18;98839.66;1786414;80;21101;-40
2021/12/08 01:54:33;;;;;;;17.32;12.35;;;;;;;0.66;73.96;98836.08;1786329;79;21002;-39
2021/12/08 01:57:00;;;;;;;17.80;12.23;;;;;;;0.61;73.85;98841.55;1786281;80;20878;-40
2021/12/08 01:59:27;;;;;;;18.92;12.00;;;;;;;0.51;74.12;98831.13;1786231;80;21064;-40
2021/12/08 02:01:54;;;;;;;16.87;12.43;;;;;;;0.48;74.30;98830.42;1786385;79;21009;-40
2021/12/08 02:04:20;;;;;;;20.37;12.85;;;;;;;0.53;74.46;98831.08;1786359;80;21046;-39
2021/12/08 02:06:47;;;;;;;16.85;12.07;;;;;;;0.59;74.44;98832.50;1786500;80;20871;-40
2021/12/08 02:09:15;;;;;;;20.32;13.43;;;;;;;0.60;74.30;98834.63;1730852;80;21019;-39
2021/12/08 02:11:52;;;;;;;18.55;11.70;;;;;;;0.58;74.28;98828.25;1786420;80;21008;-39
2021/12/08 02:14:15;;;;;;;16.75;11.93;;;;;;;0.59;74.24;98838.38;1786618;79;21570;-40
2021/12/08 02:16:42;;;;;;;19.17;12.68;;;;;;;0.62;74.09;98837.78;1786291;80;21110;-40
2021/12/08 02:19:09;;;;;;;18.82;12.80;;;;;;;0.60;74.07;98834.09;1786379;80;21013;-39
2021/12/08 02:21:39;;;;;;;18.92;12.47;;;;;;;0.54;74.08;98833.97;1786338;79;20929;-40
2021/12/08 02:24:11;;;;;;;19.27;12.63;;;;;;;0.52;74.31;98830.05;1786392;79;21017;-40
2021/12/08 02:26:39;;;;;;;22.22;12.95;;;;;;;0.54;74.17;98834.51;1785910;80;21071;-40
2021/12/08 02:29:11;;;;;;;19.42;13.65;;;;;;;0.52;74.15;98834.05;1786384;79;21530;-41
2021/12/08 02:31:50;;;;;;;17.90;12.63;;;;;;;0.46;74.20;98836.05;1786413;79;21011;-40
2021/12/08 02:47:55;;;;;;;21.85;13.58;;;;;;;0.62;73.97;98829.78;1777028;80;21012;-40
2021/12/08 02:50:30;;;;;;;21.10;12.70;;;;;;;0.56;73.97;98819.00;1777040;80;21071;-40
2021/12/08 02:52:57;;;;;;;19.15;12.15;;;;;;;0.48;73.93;98823.21;1776244;80;21032;-40
2021/12/08 02:55:26;;;;;;;20.05;12.73;;;;;;;0.43;74.18;98822.80;1765274;80;21462;-40
2021/12/08 02:57:53;;;;;;;22.67;12.98;;;;;;;0.49;74.28;98821.30;1777059;80;21008;-40
2021/12/08 03:00:25;;;;;;;21.35;13.28;;;;;;;0.48;74.38;98827.75;1777067;80;20897;-40
2021/12/08 03:02:53;;;;;;;18.35;12.63;;;;;;;0.44;74.43;98827.02;1777269;80;21392;-40
2021/12/08 03:05:19;;;;;;;20.70;12.93;;;;;;;0.43;74.39;98832.67;1776787;80;21581;-39
2021/12/08 03:07:46;;;;;;;21.62;13.40;;;;;;;0.41;74.37;98826.84;1776844;80;21114;-40
2021/12/08 03:10:16;;;;;;;21.30;12.75;;;;;;;0.36;74.48;98834.97;1776880;80;21538;-40
2021/12/08 03:12:45;;;;;;;22.85;13.68;;;;;;;0.32;74.55;98830.80;1776955;80;20976;-40
2021/12/08 03:15:11;;;;;;;19.30;12.25;;;;;;;0.27;74.70;98830.92;1776937;80;21593;-40
2021/12/08 03:17:38;;;;;;;23.32;12.85;;;;;;;0.31;74.78;98831.89;1777276;80;21045;-40
2021/12/08 03:20:09;;;;;;;18.90;12.95;;;;;;;0.31;74.83;98833.77;1777158;80;21779;-40
2021/12/08 03:22:41;;;;;;;20.27;13.62;;;;;;;0.31;74.87;98823.89;1777240;80;21612;-40
2021/12/08 03:25:08;;;;;;;23.60;12.93;;;;;;;0.28;74.85;98817.84;1776231;80;21031;-40
2021/12/08 03:27:42;;;;;;;20.10;13.80;;;;;;;0.29;74.85;98811.97;1776905;80;20995;-40
2021/12/08 03:30:20;;;;;;;19.35;10.80;;;;;;;0.27;74.94;98814.93;1770008;80;21028;-40
2021/12/08 03:32:45;;;;;;;21.12;13.40;;;;;;;0.32;74.96;98810.02;1776693;80;21195;-40
2021/12/08 03:35:15;;;;;;;20.92;14.05;;;;;;;0.27;74.81;98812.81;1776834;80;20965;-40
2021/12/08 03:37:44;;;;;;;;;;;;;;;0.22;74.96;98799.06;1780757;80;21046;-40
2021/12/08 03:40:24;;;;;;;15.83;10.10;;;;;;;0.20;75.00;98804.44;1771776;79;20230;-40
2021/12/08 03:42:54;;;;;;;21.42;13.38;;;;;;;0.10;75.41;98814.05;1760583;81;21084;-40
2021/12/08 03:45:31;;;;;;;21.90;13.90;;;;;;;0.07;75.60;98801.31;1760411;81;21105;-39
2021/12/08 03:48:02;;;;;;;26.85;14.18;;;;;;;0.08;75.62;98811.67;1760370;81;21012;-39
2021/12/08 03:50:34;;;;;;;22.93;14.33;;;;;;;0.11;75.61;98810.27;1760132;81;20926;-40
2021/12/08 03:53:00;;;;;;;24.77;14.60;;;;;;;0.16;75.65;98804.27;1760267;81;21527;-40
2021/12/08 03:55:27;;;;;;;25.27;14.83;;;;;;;0.18;75.70;98803.44;1760149;81;21083;-40
2021/12/08 03:57:53;;;;;;;22.70;14.05;;;;;;;0.19;75.48;98806.89;1760380;81;21581;-40
2021/12/08 04:00:22;;;;;;;22.58;14.00;;;;;;;0.22;75.44;98809.73;1760271;81;20890;-40
2021/12/08 04:02:49;;;;;;;25.10;15.25;;;;;;;0.26;75.37;98807.23;1760643;81;20968;-40
2021/12/08 04:05:19;;;;;;;24.55;14.80;;;;;;;0.27;75.47;98814.93;1760187;81;21522;-39
2021/12/08 04:07:47;;;;;;;23.07;14.87;;;;;;;0.24;75.27;98806.19;1760698;81;21064;-40
2021/12/08 04:10:19;;;;;;;26.00;16.57;;;;;;;0.27;75.21;98809.60;1760056;81;21153;-40
2021/12/08 04:12:48;;;;;;;26.20;15.50;;;;;;;0.24;75.33;98806.19;1760460;81;20921;-40
2021/12/08 04:15:15;;;;;;;24.60;15.40;;;;;;;0.25;75.26;98802.44;1760193;81;21012;-40
2021/12/08 04:17:46;;;;;;;27.02;16.10;;;;;;;0.26;75.26;98816.02;1760144;81;20986;-40
2021/12/08 04:20:30;;;;;;;25.75;15.48;;;;;;;0.24;75.24;98812.86;1760470;81;21059;-40
2021/12/08 04:22:57;;;;;;;26.87;15.98;;;;;;;0.22;75.34;98812.39;1760426;81;21131;-39
2021/12/08 04:25:28;;;;;;;27.22;16.10;;;;;;;0.16;75.36;98805.60;1760264;81;20999;-40
2021/12/08 04:27:56;;;;;;;29.85;16.25;;;;;;;0.12;75.59;98808.64;1760190;81;21032;-40
2021/12/08 04:30:32;;;;;;;27.87;16.57;;;;;;;0.09;75.68;98817.25;1760192;81;21525;-40
2021/12/08 04:32:59;;;;;;;28.35;17.12;;;;;;;0.07;75.90;98806.09;1758467;81;21260;-39
2021/12/08 04:35:26;;;;;;;28.12;16.57;;;;;;;0.12;76.01;98811.84;1760079;81;22059;-39
2021/12/08 04:37:57;;;;;;;28.75;16.23;;;;;;;0.18;75.88;98815.42;1759180;81;20921;-39
2021/12/08 04:41:03;;;;;;;27.37;16.50;;;;;;;0.24;75.82;98816.86;1741060;81;21531;-40
2021/12/08 04:44:23;;;;;;;26.17;14.78;;;;;;;0.25;75.72;98824.31;1741867;81;20977;-39
2021/12/08 04:46:12;;;;;;;27.45;16.07;;;;;;;0.22;75.61;98825.72;1713944;81;21033;-40
2021/12/08 04:51:25;;;;;;;29.55;16.75;;;;;;;0.22;75.68;98822.27;1741841;82;20989;-39
2021/12/08 05:04:45;;;;;;;29.30;17.73;;;;;;;0.31;75.41;98821.22;1741632;82;20922;-40
2021/12/08 05:09:48;;;;;;;31.50;17.87;;;;;;;0.18;75.45;98819.42;1741699;82;21092;-40
2021/12/08 05:12:19;;;;;;;27.07;16.93;;;;;;;0.17;75.62;98828.51;1741784;82;21037;-40
2021/12/08 05:15:05;;;;;;;29.35;17.02;;;;;;;0.17;75.74;98825.84;1742016;82;21124;-40
2021/12/08 05:17:38;;;;;;;26.37;16.42;;;;;;;0.13;75.93;98818.76;1741756;81;21034;-40
2021/12/08 05:20:16;;;;;;;26.33;16.07;;;;;;;0.10;76.16;98814.80;1742057;82;21006;-40
2021/12/08 05:22:48;;;;;;;36.42;18.70;;;;;;;0.11;76.31;98825.72;1741148;81;21001;-40
2021/12/08 05:25:18;;;;;;;31.37;17.67;;;;;;;0.14;76.40;98818.47;1741917;82;21581;-40
2021/12/08 05:27:47;;;;;;;28.17;17.27;;;;;;;0.17;76.54;98814.39;1741762;81;22215;-40
2021/12/08 05:30:25;;;;;;;27.32;15.70;;;;;;;0.27;76.51;98812.81;1742212;81;20927;-40
2021/12/08 05:32:54;;;;;;;23.30;14.93;;;;;;;0.37;76.17;98810.67;1741680;81;20973;-40
2021/12/08 05:35:21;;;;;;;26.77;15.68;;;;;;;0.36;75.96;98809.09;1741592;82;21000;-40
2021/12/08 05:37:48;;;;;;;25.27;14.70;;;;;;;0.33;75.90;98808.39;1741694;82;21017;-40
2021/12/08 05:40:20;;;;;;;22.95;14.83;;;;;;;0.33;76.00;98809.72;1741614;81;21143;-40
2021/12/08 05:42:46;;;;;;;25.17;15.23;;;;;;;0.41;75.94;98819.64;1741094;81;21673;-40
2021/12/08 05:45:17;;;;;;;25.35;15.18;;;;;;;0.44;75.78;98816.34;1741904;82;21542;-40
2021/12/08 05:47:45;;;;;;;24.95;14.98;;;;;;;0.41;75.61;98814.30;1741703;82;21029;-40
2021/12/08 05:50:13;;;;;;;21.80;13.78;;;;;;;0.41;75.64;98818.30;1741903;82;21088;-40
2021/12/08 05:52:40;;;;;;;26.93;15.25;;;;;;;0.48;75.56;98822.42;1741941;81;21733;-39
2021/12/08 05:55:08;;;;;;;22.02;13.95;;;;;;;0.52;75.45;98814.05;1741689;82;20954;-40
2021/12/08 05:57:39;;;;;;;24.30;14.73;;;;;;;0.49;75.37;98810.64;1741937;82;21012;-39
2021/12/08 06:00:31;;;;;;;23.20;13.65;;;;;;;0.44;75.43;98815.02;1741777;82;21033;-40
2021/12/08 06:02:58;;;;;;;24.55;13.95;;;;;;;0.07;75.37;98763.46;1741781;82;21777;-40
2021/12/08 06:05:26;;;;;;;22.27;13.58;;;;;;;0.47;75.42;98820.84;1741714;81;21126;-40
2021/12/08 06:07:54;;;;;;;22.30;13.70;;;;;;;0.45;75.48;98826.47;1741954;82;21558;-40
2021/12/08 06:10:25;;;;;;;22.60;13.20;;;;;;;0.44;75.55;98835.02;1741564;82;20993;-40
2021/12/08 06:12:52;;;;;;;21.73;13.10;;;;;;;0.47;75.70;98835.51;1742217;82;20950;-40
2021/12/08 06:15:20;;;;;;;21.15;13.62;;;;;;;0.56;75.56;98843.00;1741702;82;21045;-39
2021/12/08 06:17:46;;;;;;;18.82;12.60;;;;;;;0.60;75.38;98842.63;1741956;82;21148;-40
2021/12/08 06:20:13;;;;;;;20.00;12.30;;;;;;;0.58;75.27;98841.59;1741550;81;20961;-40
2021/12/08 06:22:41;;;;;;;19.40;11.83;;;;;;;0.55;75.26;98837.42;1741757;82;20965;-40
2021/12/08 06:25:10;;;;;;;18.98;11.88;;;;;;;0.58;75.19;98836.26;1741747;82;21523;-40
2021/12/08 06:27:37;;;;;;;20.80;11.90;;;;;;;0.62;74.92;98843.91;1742138;82;21100;-40
2021/12/08 06:30:06;;;;;;;17.77;11.28;;;;;;;0.61;75.00;98840.20;1741749;82;21113;-40
2021/12/08 06:32:34;;;;;;;15.70;9.98;;;;;;;0.60;75.11;98841.30;1741797;81;21111;-40
2021/12/08 06:35:03;;;;;;;17.05;10.43;;;;;;;0.58;75.04;98841.59;1741738;81;21524;-40
2021/12/08 06:37:35;;;;;;;16.27;10.10;;;;;;;0.61;74.97;98842.87;1741736;82;21539;-39
2021/12/08 06:40:22;;;;;;;18.92;10.90;;;;;;;0.59;74.78;98839.71;1775530;80;21511;-40
2021/12/08 06:42:53;;;;;;;17.30;10.30;;;;;;;0.57;74.94;98843.25;1769997;80;21845;-40
2021/12/08 06:45:22;;;;;;;;;;;;;;;0.56;75.03;98839.00;1785722;80;21921;-40
2021/12/08 06:47:50;;;;;;;11.50;7.67;;;;;;;0.60;74.96;98835.96;1783032;80;20101;-40
2021/12/08 06:50:31;;;;;;;15.78;9.73;;;;;;;0.49;75.08;98842.64;1783089;79;21683;-40
2021/12/08 06:52:58;;;;;;;17.73;8.90;;;;;;;0.49;75.28;98842.09;1783177;80;21002;-40
2021/12/08 06:55:30;;;;;;;12.98;8.68;;;;;;;0.54;75.31;98847.30;1782932;80;21949;-40
2021/12/08 06:58:02;;;;;;;14.53;9.10;;;;;;;0.62;75.11;98849.80;1782942;80;21025;-39
2021/12/08 07:00:49;;;;;;;15.18;9.65;;;;;;;0.65;75.00;98852.63;1783227;80;20965;-40
2021/12/08 07:06:05;;;;;;;12.63;8.00;;;;;;;0.71;74.89;98854.62;1734153;82;21071;-40
2021/12/08 07:08:23;;;;;;;14.05;8.18;;;;;;;0.75;74.60;98855.58;1767199;79;20961;-40
2021/12/08 07:10:51;;;;;;;12.63;8.48;;;;;;;0.75;74.50;98856.91;1783084;80;20929;-40
2021/12/08 07:13:21;;;;;;;13.25;8.40;;;;;;;0.72;74.50;98846.31;1782974;79;20957;-39
2021/12/08 07:15:59;;;;;;;13.62;8.00;;;;;;;0.72;74.55;98842.86;1783179;80;21041;-41
2021/12/08 07:18:37;;;;;;;11.25;6.95;;;;;;;0.77;74.53;98840.06;1783161;80;21439;-41
2021/12/08 07:21:02;;;;;;;12.95;7.92;;;;;;;0.81;74.26;98843.14;1782460;80;22212;-40
2021/12/08 07:23:40;;;;;;;11.50;7.60;;;;;;;0.80;74.32;98842.10;1777400;80;21009;-40
2021/12/08 07:26:17;;;;;;;10.93;7.17;;;;;;;0.79;74.31;98843.19;1783021;79;20925;-40
2021/12/08 07:28:44;;;;;;;12.28;7.28;;;;;;;0.78;74.43;98844.28;1783142;80;20930;-40
2021/12/08 07:31:22;;;;;;;10.80;7.08;;;;;;;0.80;74.16;98843.44;1783056;79;21076;-40
2021/12/08 07:33:49;;;;;;;10.95;7.35;;;;;;;0.80;74.36;98842.89;1783007;79;21787;-40
2021/12/08 07:36:18;;;;;;;11.68;7.30;;;;;;;0.81;74.43;98843.14;1782990;80;21506;-39
2021/12/08 07:38:48;;;;;;;12.33;7.30;;;;;;;0.84;74.36;98841.72;1783141;79;21519;-40
2021/12/08 07:41:31;;;;;;;10.08;6.75;;;;;;;0.86;74.32;98844.34;1788833;80;21075;-40
2021/12/08 07:44:05;;;;;;;12.43;7.30;;;;;;;0.86;74.38;98834.20;1788375;79;21029;-40
2021/12/08 07:46:36;;;;;;;9.45;6.10;;;;;;;0.83;74.61;98841.48;1788773;79;21126;-40
2021/12/08 07:49:10;;;;;;;8.88;5.83;;;;;;;0.83;74.43;98837.47;1788227;79;21015;-40
2021/12/08 07:51:47;;;;;;;9.38;6.33;;;;;;;0.86;74.38;98831.54;1788951;80;21013;-40
2021/12/08 07:55:01;;;;;;;8.75;5.97;;;;;;;0.96;74.51;98825.93;1829880;78;22678;-40
2021/12/08 07:57:30;;;;;;;10.23;6.37;;;;;;;0.86;74.31;98831.54;1802527;79;21489;-40
2021/12/08 08:00:02;;;;;;;7.85;5.87;;;;;;;0.50;74.42;98783.67;1802582;79;21121;-40
2021/12/08 08:02:29;;;;;;;9.25;6.15;;;;;;;0.85;74.42;98843.30;1802436;79;21524;-40
2021/12/08 08:04:59;;;;;;;8.13;5.42;;;;;;;0.87;74.45;98829.88;1802630;79;20880;-40
2021/12/08 08:07:26;;;;;;;9.28;5.65;;;;;;;0.84;74.21;98827.84;1802634;79;20955;-40
2021/12/08 08:10:02;;;;;;;6.37;4.90;;;;;;;0.78;74.35;98821.05;1802522;79;20948;-40
2021/12/08 08:12:32;;;;;;;7.55;5.20;;;;;;;0.73;74.39;98824.41;1802522;79;21753;-40
2021/12/08 08:15:02;;;;;;;9.25;5.70;;;;;;;0.77;74.53;98830.18;1802444;79;21501;-40
2021/12/08 08:17:37;;;;;;;9.10;6.12;;;;;;;0.80;74.72;98825.55;1802855;79;21002;-40
2021/12/08 08:20:10;;;;;;;9.30;5.78;;;;;;;0.81;74.65;98817.00;1802284;79;20959;-40
2021/12/08 08:22:37;;;;;;;8.88;5.45;;;;;;;0.82;74.66;98817.25;1802443;79;21007;-40
2021/12/08 08:25:07;;;;;;;7.20;5.50;;;;;;;0.84;74.40;98803.03;1802496;79;21849;-40
2021/12/08 08:27:34;;;;;;;9.58;5.70;;;;;;;0.84;74.00;98809.70;1802650;79;21001;-40
2021/12/08 08:30:06;;;;;;;9.58;6.12;;;;;;;0.82;74.11;98808.66;1802447;79;21457;-40
2021/12/08 08:32:35;;;;;;;8.23;5.45;;;;;;;0.84;74.19;98799.03;1802539;79;20979;-40
2021/12/08 08:35:09;;;;;;;8.85;5.72;;;;;;;0.86;73.81;98802.19;1802179;79;21019;-40
2021/12/08 08:37:35;;;;;;;7.35;5.45;;;;;;;0.85;73.86;98804.06;1801498;79;21794;-40
2021/12/08 08:40:08;;;;;;;6.75;5.22;;;;;;;0.79;73.79;98801.29;1802501;79;21499;-39
2021/12/08 08:42:38;;;;;;;8.98;5.90;;;;;;;0.78;73.76;98805.59;1802405;79;21016;-39
2021/12/08 08:45:13;;;;;;;8.13;5.70;;;;;;;0.74;73.77;98793.97;1802691;79;21017;-40
2021/12/08 08:47:48;;;;;;;8.13;4.95;;;;;;;0.73;73.69;98793.72;1802329;79;21013;-40
2021/12/08 08:50:20;;;;;;;6.58;4.70;;;;;;;0.73;73.65;98791.84;1801334;79;21053;-40
2021/12/08 08:52:50;;;;;;;7.42;4.58;;;;;;;0.73;73.74;98787.84;1802303;79;20976;-41
2021/12/08 08:55:23;;;;;;;;;;;;;;;0.69;73.63;98784.77;1794286;79;20954;-40
2021/12/08 08:57:50;;;;;;;6.70;4.87;;;;;;;0.71;73.81;98783.92;1776238;79;20174;-40
2021/12/08 09:00:30;;;;;;;6.45;4.85;;;;;;;0.66;73.89;98766.17;1775198;80;21044;-41
2021/12/08 09:03:01;;;;;;;6.83;5.22;;;;;;;0.67;73.84;98764.30;1775291;80;21793;-40
2021/12/08 09:05:35;;;;;;;9.60;5.03;;;;;;;0.65;74.05;98760.59;1774786;80;20965;-41
2021/12/08 09:08:03;;;;;;;7.22;4.78;;;;;;;0.65;74.09;98758.47;1774712;80;21475;-40
2021/12/08 09:10:44;;;;;;;6.25;4.60;;;;;;;0.66;74.09;98752.05;1774516;80;21545;-41
2021/12/08 09:13:35;;;;;;;6.92;4.72;;;;;;;0.65;73.80;98747.80;1774509;80;20933;-40
2021/12/08 09:16:10;;;;;;;4.20;3.40;;;;;;;0.59;74.07;98747.70;1774962;80;21068;-41
2021/12/08 09:18:53;;;;;;;6.08;4.47;;;;;;;0.60;74.30;98754.06;1773423;80;21698;-40
2021/12/08 09:21:43;;;;;;;7.03;4.90;;;;;;;0.63;74.32;98758.02;1774985;79;21011;-41
2021/12/08 09:24:22;;;;;;;5.28;3.95;;;;;;;0.62;74.47;98760.44;1774795;80;21019;-40
2021/12/08 09:26:55;;;;;;;7.40;4.58;;;;;;;0.55;74.29;98776.08;1774531;80;20945;-40
2021/12/08 09:29:27;;;;;;;5.47;4.20;;;;;;;0.56;74.58;98784.33;1774492;80;21095;-41
2021/12/08 09:32:05;;;;;;;7.85;4.28;;;;;;;0.59;74.77;98793.83;1774693;80;21490;-41
2021/12/08 09:34:42;;;;;;;4.80;3.45;;;;;;;0.62;74.70;98788.44;1774324;79;21032;-41
2021/12/08 09:37:16;;;;;;;5.30;3.62;;;;;;;0.63;74.53;98794.02;1774714;80;21071;-41
2021/12/08 09:39:47;;;;;;;4.90;3.35;;;;;;;0.59;74.54;98795.70;1769289;80;21072;-41
2021/12/08 09:42:25;;;;;;;3.70;3.15;;;;;;;0.60;74.61;98795.95;1759660;81;21543;-40
2021/12/08 09:45:02;;;;;;;4.65;3.20;;;;;;;0.61;74.70;98789.53;1759776;80;20958;-41
2021/12/08 09:47:29;;;;;;;4.87;3.67;;;;;;;0.64;74.72;98791.57;1758952;81;21053;-41
2021/12/08 09:50:00;;;;;;;3.90;3.10;;;;;;;0.64;74.87;98782.23;1759543;81;20990;-41
2021/12/08 09:52:27;;;;;;;4.87;3.40;;;;;;;0.66;74.86;98777.39;1759677;80;21520;-41
2021/12/08 09:54:57;;;;;;;4.30;3.30;;;;;;;0.68;74.53;98781.85;1765081;81;21503;-41
2021/12/08 09:57:25;;;;;;;6.10;3.80;;;;;;;0.72;74.74;98769.50;1767314;81;28201;-41
2021/12/08 09:59:52;;;;;;;5.15;3.30;;;;;;;0.77;74.82;98766.14;1768008;80;21601;-41
2021/12/08 10:02:33;;;;;;;4.53;3.30;;;;;;;0.80;74.51;98770.06;1767624;80;21435;-41
2021/12/08 10:04:59;;;;;;;4.53;3.15;;;;;;;0.76;73.83;98763.78;1767983;79;20997;-41
2021/12/08 10:07:27;;;;;;;3.83;2.92;;;;;;;0.72;74.13;98770.83;1767794;80;21719;-41
2021/12/08 10:09:54;;;;;;;3.75;2.80;;;;;;;0.70;74.33;98767.67;1767990;80;21005;-41
2021/12/08 10:12:21;;;;;;;3.55;2.80;;;;;;;0.69;74.22;98772.22;1767674;81;20988;-41
2021/12/08 10:14:50;;;;;;;4.10;3.20;;;;;;;0.70;73.86;98762.34;1762122;80;20953;-41
2021/12/08 10:17:17;;;;;;;2.98;2.10;;;;;;;0.66;74.01;98762.17;1767998;80;21060;-41
2021/12/08 10:19:46;;;;;;;3.95;3.37;;;;;;;0.63;74.31;98760.68;1768154;81;21080;-41
2021/12/08 10:22:19;;;;;;;3.70;2.90;;;;;;;0.63;74.39;98764.68;1767674;81;20997;-41
2021/12/08 10:25:20;;;;;;;3.27;2.65;;;;;;;0.69;74.44;98760.76;1767932;80;20945;-42
2021/12/08 10:28:18;;;;;;;3.83;3.00;;;;;;;0.70;74.44;98772.46;1672429;84;21069;-41
2021/12/08 10:30:53;;;;;;;4.17;3.08;;;;;;;0.67;74.48;98762.97;1731460;82;21097;-41
2021/12/08 10:34:06;;;;;;;4.28;3.10;;;;;;;0.70;74.52;98766.34;1767805;80;21129;-40
2021/12/08 10:37:00;;;;;;;3.17;2.62;;;;;;;0.77;74.46;98768.02;1768223;78;21014;-40
2021/12/08 10:39:46;;;;;;;4.28;2.90;;;;;;;0.75;74.27;98774.20;1775373;79;21009;-41
2021/12/08 10:42:18;;;;;;;3.45;2.62;;;;;;;0.72;73.96;98770.83;1799520;79;20909;-40
2021/12/08 10:45:13;;;;;;;3.67;2.50;;;;;;;0.78;73.89;98768.23;1799173;78;21813;-41
2021/12/08 10:47:55;;;;;;;3.02;2.50;;;;;;;0.82;73.63;98759.88;1799334;79;21146;-41
2021/12/08 10:56:08;;;;;;;;;;;;;;;0.69;73.88;98746.88;1802112;79;21499;-41
2021/12/08 10:58:39;;;;;;;4.10;2.90;;;;;;;0.72;74.17;98748.16;1799591;78;20170;-41
2021/12/08 11:01:16;;;;;;;3.45;2.47;;;;;;;0.64;74.44;98745.68;1799243;79;21057;-41
2021/12/08 11:03:43;;;;;;;4.22;2.75;;;;;;;0.62;74.12;98735.09;1799047;79;20917;-41
2021/12/08 11:06:13;;;;;;;3.30;2.52;;;;;;;0.59;74.01;98741.03;1799302;79;20990;-41
2021/12/08 11:08:41;;;;;;;2.90;2.42;;;;;;;0.58;74.00;98736.81;1799239;79;21092;-41
2021/12/08 11:11:25;;;;;;;3.58;2.75;;;;;;;0.56;74.22;98733.66;1799646;78;21064;-41
2021/12/08 11:13:56;;;;;;;2.98;2.33;;;;;;;0.61;74.45;98736.19;1799242;79;21098;-41
2021/12/08 11:16:29;;;;;;;3.02;2.42;;;;;;;0.65;74.39;98727.80;1798467;79;21057;-41
2021/12/08 11:19:21;;;;;;;3.80;2.52;;;;;;;0.69;74.19;98723.41;1799348;79;21483;-41
2021/12/08 11:21:55;;;;;;;3.50;2.27;;;;;;;0.68;74.04;98723.17;1799498;79;20991;-41
2021/12/08 11:24:33;;;;;;;4.15;2.83;;;;;;;0.67;74.15;98716.28;1799390;79;21306;-41
2021/12/08 11:27:03;;;;;;;2.92;2.00;;;;;;;0.71;74.12;98711.89;1799543;79;21587;-41
2021/12/08 11:29:31;;;;;;;3.37;2.70;;;;;;;0.75;73.88;98699.50;1799236;78;21036;-41
2021/12/08 11:32:01;;;;;;;3.33;2.33;;;;;;;0.72;73.87;98700.14;1799880;79;20895;-42
2021/12/08 11:34:41;;;;;;;3.60;2.50;;;;;;;0.68;73.92;98694.61;1799463;78;21497;-41
2021/12/08 11:37:17;;;;;;;3.42;2.55;;;;;;;0.64;74.10;98696.88;1799671;79;21064;-41
2021/12/08 11:39:55;;;;;;;3.55;2.58;;;;;;;0.61;74.33;98690.84;1799276;78;21102;-41
2021/12/08 11:42:24;;;;;;;3.12;2.37;;;;;;;0.65;74.33;98690.45;1799513;79;21530;-41
2021/12/08 11:44:56;;;;;;;3.17;2.58;;;;;;;0.67;74.30;98687.73;1799309;78;21001;-41
2021/12/08 11:47:33;;;;;;;3.02;2.27;;;;;;;0.67;74.49;98694.95;1799121;79;21004;-41
2021/12/08 11:50:19;;;;;;;2.33;2.12;;;;;;;0.70;74.56;98694.31;1799392;79;21510;-41
2021/12/08 11:52:52;;;;;;;3.33;2.42;;;;;;;0.78;74.53;98698.33;1799686;79;21054;-41
2021/12/08 11:55:20;;;;;;;3.37;2.47;;;;;;;0.83;74.46;98696.06;1768401;79;21555;-41
2021/12/08 11:57:54;;;;;;;3.05;2.17;;;;;;;0.82;74.38;98701.18;1796765;79;21018;-41
2021/12/08 12:00:24;;;;;;;3.02;2.27;;;;;;;0.82;74.14;98699.27;1796611;79;21000;-41
2021/12/08 12:03:03;;;;;;;3.02;2.50;;;;;;;0.78;74.14;98686.32;1796960;79;20914;-41
2021/12/08 12:05:39;;;;;;;2.72;2.33;;;;;;;0.85;73.98;98691.21;1796735;79;21563;-41
2021/12/08 12:08:11;;;;;;;4.17;2.47;;;;;;;0.85;74.20;98696.55;1796972;79;20938;-41
2021/12/08 12:10:43;;;;;;;3.20;2.27;;;;;;;0.80;73.87;98698.81;1796650;78;21531;-41
2021/12/08 12:13:11;;;;;;;3.25;2.40;;;;;;;0.77;74.09;98693.32;1796320;79;20969;-41
2021/12/08 12:15:47;;;;;;;3.42;2.22;;;;;;;0.77;74.22;98690.66;1796592;79;21017;-41
2021/12/08 12:18:09;;;;;;;3.10;2.62;;;;;;;0.77;74.08;98682.65;1796411;79;21176;-41
2021/12/08 12:20:54;;;;;;;3.40;2.70;;;;;;;0.73;74.42;98681.67;1796573;79;21523;-41
2021/12/08 12:24:07;;;;;;;2.75;2.10;;;;;;;0.75;74.59;98683.50;1796992;79;20954;-40
2021/12/08 12:27:19;;;;;;;2.90;2.50;;;;;;;0.82;74.42;98687.84;1796598;79;20996;-40
2021/12/08 12:30:06;;;;;;;4.42;2.62;;;;;;;0.81;74.29;98683.05;1797099;79;21009;-41
2021/12/08 12:32:53;;;;;;;2.92;2.10;;;;;;;0.75;74.50;98687.50;1796876;79;21486;-40
2021/12/08 12:35:31;;;;;;;2.77;2.12;;;;;;;0.75;74.57;98686.16;1796826;79;21081;-41
2021/12/08 12:38:07;;;;;;;3.00;2.50;;;;;;;0.79;74.41;98695.11;1796792;79;21018;-41
2021/12/08 12:40:39;;;;;;;3.30;2.58;;;;;;;0.81;74.49;98690.27;1796667;79;21017;-41